createdAt,value
2019-03-27T00:01:35.424Z,22.13
2019-03-27T00:07:00.658Z,23.73
2019-03-27T00:12:29.293Z,27.70
2019-03-27T00:17:53.800Z,17.47
2019-03-27T00:23:18.026Z,19.80
2019-03-27T00:28:42.377Z,23.77
2019-03-27T00:34:06.718Z,18.20
2019-03-27T00:39:31.471Z,17.27
2019-03-27T00:44:55.889Z,24.60
2019-03-27T00:50:20.864Z,20.70
2019-03-27T00:55:45.691Z,19.70
2019-03-27T01:01:13.045Z,23.50
2019-03-27T01:06:37.597Z,20.47
2019-03-27T01:12:02.203Z,18.20
2019-03-27T01:17:26.435Z,15.13
2019-03-27T01:22:52.632Z,19.57
2019-03-27T01:28:17.863Z,17.57
2019-03-27T01:33:42.420Z,18.77
2019-03-27T01:39:08.518Z,19.07
2019-03-27T01:44:33.645Z,17.17
2019-03-27T01:49:59.018Z,20.00
2019-03-27T01:55:24.241Z,17.60
2019-03-27T02:00:48.609Z,24.60
2019-03-27T02:06:13.117Z,22.17
2019-03-27T02:11:38.759Z,22.20
2019-03-27T02:17:03.931Z,19.03
2019-03-27T02:22:28.329Z,19.60
2019-03-27T02:27:52.512Z,20.77
2019-03-27T02:33:17.888Z,16.33
2019-03-27T02:38:42.625Z,36.63
2019-03-27T02:44:06.940Z,27.40
2019-03-27T02:49:32.013Z,23.33
2019-03-27T02:54:57.395Z,26.33
2019-03-27T03:00:22.954Z,29.70
2019-03-27T03:05:47.410Z,24.57
2019-03-27T03:11:12.650Z,28.70
2019-03-27T03:16:42.868Z,23.90
2019-03-27T03:22:03.346Z,23.43
2019-03-27T03:27:28.998Z,20.63
2019-03-27T03:32:54.454Z,22.53
2019-03-27T03:38:19.529Z,18.13
2019-03-27T03:43:44.042Z,23.53
2019-03-27T03:49:09.491Z,26.90
2019-03-27T03:54:34.565Z,22.23
2019-03-27T04:00:02.762Z,22.53
2019-03-27T04:05:27.583Z,24.43
2019-03-27T04:10:52.606Z,23.00
2019-03-27T04:16:17.052Z,27.97
2019-03-27T04:21:41.510Z,23.13
2019-03-27T04:27:06.947Z,27.63
2019-03-27T04:32:31.885Z,20.90
2019-03-27T04:37:56.239Z,27.83
2019-03-27T04:43:21.278Z,25.33
2019-03-27T04:48:46.889Z,24.53
2019-03-27T04:54:12.602Z,22.87
2019-03-27T04:59:37.073Z,25.07
2019-03-27T05:05:02.362Z,20.93
2019-03-27T05:10:28.740Z,16.73
2019-03-27T05:15:54.003Z,19.53
2019-03-27T05:21:19.655Z,22.50
2019-03-27T05:26:44.923Z,17.60
2019-03-27T05:32:09.839Z,15.40
2019-03-27T05:37:34.836Z,18.43
2019-03-27T05:43:01.215Z,22.57
2019-03-27T05:48:25.832Z,19.40
2019-03-27T05:53:50.831Z,24.20
2019-03-27T05:59:16.250Z,20.97
2019-03-27T06:04:40.748Z,25.23
2019-03-27T06:10:06.692Z,26.87
2019-03-27T06:15:32.168Z,23.07
2019-03-27T06:20:56.658Z,23.73
2019-03-27T06:26:22.081Z,24.40
2019-03-27T06:31:47.191Z,24.57
2019-03-27T06:37:12.427Z,20.33
2019-03-27T06:42:37.253Z,27.47
2019-03-27T06:48:02.005Z,28.10
2019-03-27T06:53:27.076Z,20.50
2019-03-27T06:58:54.846Z,20.63
2019-03-27T07:04:16.847Z,25.73
2019-03-27T07:09:42.647Z,22.07
2019-03-27T07:15:08.417Z,22.53
2019-03-27T07:20:33.459Z,23.80
2019-03-27T07:25:59.023Z,28.60
2019-03-27T07:31:23.973Z,24.17
2019-03-27T07:36:48.445Z,24.17
2019-03-27T07:42:12.752Z,18.77
2019-03-27T07:47:38.564Z,21.27
2019-03-27T07:53:03.102Z,18.93
2019-03-27T07:58:28.453Z,22.87
2019-03-27T08:03:52.847Z,15.87
2019-03-27T08:09:17.347Z,17.53
2019-03-27T08:14:42.521Z,19.60
2019-03-27T08:20:09.409Z,19.77
2019-03-27T08:25:34.585Z,18.00
2019-03-27T08:30:59.825Z,18.30
2019-03-27T08:36:24.794Z,18.47
2019-03-27T08:41:50.057Z,17.17
2019-03-27T08:47:14.855Z,17.13
2019-03-27T08:52:40.132Z,21.37
2019-03-27T08:58:05.778Z,18.63
2019-03-27T09:03:30.130Z,21.03
2019-03-27T09:08:54.527Z,14.03
2019-03-27T09:14:19.707Z,17.80
2019-03-27T09:19:44.666Z,12.97
2019-03-27T09:25:10.060Z,19.67
2019-03-27T09:30:35.293Z,22.33
2019-03-27T09:35:59.414Z,15.90
2019-03-27T09:41:24.787Z,17.50
2019-03-27T09:46:49.962Z,23.63
2019-03-27T09:52:15.473Z,19.70
2019-03-27T09:57:40.485Z,16.90
2019-03-27T10:03:06.169Z,18.63
2019-03-27T10:08:30.611Z,19.73
2019-03-27T10:13:55.948Z,14.47
2019-03-27T10:19:21.415Z,16.87
2019-03-27T10:24:45.567Z,16.13
2019-03-27T10:30:10.895Z,18.90
2019-03-27T10:35:36.117Z,17.33
2019-03-27T10:41:01.476Z,17.23
2019-03-27T10:46:26.610Z,19.23
2019-03-27T10:51:51.049Z,18.83
2019-03-27T10:57:16.291Z,15.03
2019-03-27T11:02:41.455Z,14.17
2019-03-27T11:08:06.826Z,15.53
2019-03-27T11:13:34.250Z,18.93
2019-03-27T11:18:57.905Z,16.40
2019-03-27T11:24:22.680Z,16.53
2019-03-27T11:29:47.600Z,19.20
2019-03-27T11:35:12.458Z,17.07
2019-03-27T11:40:37.649Z,18.20
2019-03-27T11:46:03.179Z,18.17
2019-03-27T11:51:28.256Z,16.57
2019-03-27T11:56:52.386Z,20.17
2019-03-27T12:02:18.199Z,18.80
2019-03-27T12:07:43.200Z,21.53
2019-03-27T12:13:07.992Z,13.87
2019-03-27T12:18:33.243Z,18.30
2019-03-27T12:23:59.004Z,19.03
2019-03-27T12:29:24.620Z,18.00
2019-03-27T12:34:48.878Z,16.03
2019-03-27T12:40:13.423Z,16.27
2019-03-27T12:45:38.480Z,12.00
2019-03-27T12:51:12.614Z,15.70
2019-03-27T12:56:31.325Z,12.90
2019-03-27T13:01:57.561Z,13.07
2019-03-27T13:07:22.790Z,11.63
2019-03-27T13:12:47.674Z,14.17
2019-03-27T13:18:13.001Z,13.60
2019-03-27T13:23:37.807Z,17.40
2019-03-27T13:29:02.709Z,16.43
2019-03-27T13:34:28.669Z,11.83
2019-03-27T13:39:52.929Z,11.93
2019-03-27T13:45:18.936Z,15.80
2019-03-27T13:50:42.996Z,10.97
2019-03-27T13:56:07.501Z,9.67
2019-03-27T14:01:32.683Z,8.97
2019-03-27T14:06:57.021Z,15.13
2019-03-27T14:12:21.234Z,10.03
2019-03-27T14:17:45.949Z,9.27
2019-03-27T14:23:11.396Z,11.00
2019-03-27T14:28:35.938Z,13.90
2019-03-27T14:34:00.247Z,9.30
2019-03-27T14:39:25.375Z,12.83
2019-03-27T14:44:50.448Z,14.07
2019-03-27T14:50:16.283Z,12.60
2019-03-27T14:55:41.545Z,14.80
2019-03-27T15:01:06.133Z,13.80
2019-03-27T15:06:31.096Z,12.50
2019-03-27T15:11:56.638Z,14.00
2019-03-27T15:17:21.272Z,14.73
2019-03-27T15:22:46.614Z,11.90
2019-03-27T15:28:11.681Z,11.33
2019-03-27T15:33:36.922Z,16.07
2019-03-27T15:39:01.513Z,12.90
2019-03-27T15:44:27.602Z,13.97
2019-03-27T15:49:53.094Z,10.03
2019-03-27T15:55:17.753Z,11.00
2019-03-27T16:00:41.941Z,12.83
2019-03-27T16:06:07.027Z,14.77
2019-03-27T16:11:32.145Z,12.23
2019-03-27T16:17:12.319Z,13.50
2019-03-27T16:22:22.399Z,15.47
2019-03-27T16:27:47.701Z,13.03
2019-03-27T16:33:12.573Z,13.27
2019-03-27T16:38:36.953Z,15.30
2019-03-27T16:44:02.438Z,15.17
2019-03-27T16:49:27.367Z,17.20
2019-03-27T16:54:51.888Z,18.27
2019-03-27T17:00:17.460Z,17.23
2019-03-27T17:05:53.254Z,15.63
2019-03-27T17:11:08.644Z,15.23
2019-03-27T17:16:34.025Z,16.93
2019-03-27T17:21:59.467Z,17.47
2019-03-27T17:27:23.578Z,18.67
2019-03-27T17:32:50.106Z,15.37
2019-03-27T17:38:15.077Z,19.30
2019-03-27T17:43:39.497Z,16.00
2019-03-27T17:49:04.533Z,18.83
2019-03-27T17:54:29.422Z,16.30
2019-03-27T17:59:54.344Z,18.17
2019-03-27T18:05:18.551Z,19.10
2019-03-27T18:10:43.324Z,22.13
2019-03-27T18:16:07.617Z,18.33
2019-03-27T18:21:32.466Z,16.40
2019-03-27T18:26:58.697Z,14.57
2019-03-27T18:32:24.091Z,12.50
2019-03-27T18:37:49.699Z,14.40
2019-03-27T18:43:14.723Z,12.53
2019-03-27T18:48:39.815Z,16.97
2019-03-27T18:54:05.374Z,15.37
2019-03-27T18:59:31.467Z,11.43
2019-03-27T19:04:56.993Z,13.37
2019-03-27T19:10:22.339Z,19.83
2019-03-27T19:15:47.243Z,15.37
2019-03-27T19:21:12.230Z,11.00
2019-03-27T19:26:37.409Z,13.63
2019-03-27T19:32:01.574Z,12.23
2019-03-27T19:37:25.865Z,12.60
2019-03-27T19:42:52.136Z,15.60
2019-03-27T19:48:16.623Z,16.17
2019-03-27T19:53:41.028Z,16.87
2019-03-27T19:59:05.436Z,12.70
2019-03-27T20:04:30.753Z,16.83
2019-03-27T20:09:56.843Z,13.60
2019-03-27T20:15:21.243Z,16.03
2019-03-27T20:20:46.185Z,14.53
2019-03-27T20:26:12.435Z,15.33
2019-03-27T20:31:36.685Z,16.37
2019-03-27T20:37:01.598Z,16.93
2019-03-27T20:42:25.956Z,15.00
2019-03-27T20:47:51.333Z,17.63
2019-03-27T20:53:15.862Z,14.87
2019-03-27T20:58:40.834Z,18.77
2019-03-27T21:04:05.287Z,19.53
2019-03-27T21:09:30.257Z,17.53
2019-03-27T21:14:55.469Z,22.00
2019-03-27T21:20:20.055Z,31.40
2019-03-27T21:25:45.291Z,24.80
2019-03-27T21:31:13.246Z,24.33
2019-03-27T21:36:38.907Z,28.40
2019-03-27T21:42:04.579Z,28.23
2019-03-27T21:47:28.881Z,30.03
2019-03-27T21:53:00.505Z,30.40
2019-03-27T21:58:21.079Z,33.57
2019-03-27T22:03:45.540Z,27.17
2019-03-27T22:09:10.354Z,32.00
2019-03-27T22:14:37.026Z,35.30
2019-03-27T22:20:01.808Z,32.53
2019-03-27T22:25:35.976Z,34.17
2019-03-27T22:30:53.712Z,36.90
2019-03-27T22:36:18.146Z,34.97
2019-03-27T22:41:43.353Z,37.13
2019-03-27T22:47:07.851Z,34.03
2019-03-27T22:52:32.683Z,38.07
2019-03-27T22:57:57.770Z,39.63
2019-03-27T23:03:22.946Z,43.97
2019-03-27T23:08:48.518Z,37.23
2019-03-27T23:14:13.487Z,37.43
2019-03-27T23:19:39.197Z,34.47
2019-03-27T23:25:05.061Z,32.03
2019-03-27T23:30:30.186Z,32.07
2019-03-27T23:35:54.573Z,30.63
2019-03-27T23:41:18.723Z,27.53
2019-03-27T23:46:44.011Z,28.13
2019-03-27T23:52:09.315Z,21.57
2019-03-27T23:57:37.654Z,26.80
